Fontana, California
Current Conditions -  °F | °C
As of 2:53 PM on Saturday 20 Dec 2014 (Local Time) from KONT Reporting Station
Broken Clouds Broken Clouds  
Wind Chill: 58°   Ceiling: 18000
Heat Index: 58°   Visibility: 9mi
Dew Point: 47°   Wind: 5mph
Humidity: 67%   Direction: 280°W
Pressure: 30.11"   Gusts: NA
Location:  34.1°N, 117.43°W
Report Text: KONT 202253Z 28004KT 9SM BKN180 BKN250 14/08 A3011 RMK AO2 SLP197 T01440083
Loading
Personal Weather Stations






























Interactive Weather Map New forecast layout! Learn more

10-Day Weather Forecast

Advertisements
Track Severe Weather on mobile